Aviation Digital Data Service (ADDS)

Output produced by METARs form (0050 UTC 06 December 2016)
found at http://aviationweather.gov/adds/metars/
 
KPSM 052325Z 0600/0624 32005KT P6SM BKN080 
     FM060100 29007KT P6SM SKC 
     FM061300 33006KT P6SM SKC